Liberty — WDD6569 — position and weather

sailwx.info

Track history (hours):
 
Tides and Currents Weather Stations Pressure Air Temp Water Temp Dewpoint Dewpoint Depression Visibility Wind Speed Wind Dir Waves Ship Positions

Liberty

Owner: Tampa Tugs Three, LLC, Tampa, FL. More information available from US FCC via Universal Licensing System and Coast Guard Vessel Documentation Center.

Last reported at 2017-Sep-23 23:30 UTC. Time now 2017-Sep-23 23:38 UTC.
Position N 27°56' W 082°26'.

Length 29 m.

Type: Tug. MMSI: 367174670.

Date/timePositionNaut miles runAvg speedWind from/ knotsBaromVisibWave heightAir tempDewpointWater temp
2017-Sep-23 23:30N 27°56' W 082°26'0 0.0
2017-Sep-23 23:00N 27°56' W 082°26'0 0.0
2017-Sep-23 22:30N 27°56' W 082°26'0 0.0
2017-Sep-23 22:00N 27°56' W 082°26'0 0.0
2017-Sep-23 21:30N 27°56' W 082°26'0 0.0
2017-Sep-23 21:00N 27°56' W 082°26'0 0.0
2017-Sep-23 20:30N 27°56' W 082°26'0 0.0
2017-Sep-23 20:00N 27°56' W 082°26'  
2017-Sep-21 11:28N 27°38' W 082°34'5 0.6
2017-Sep-21 03:38N 27°43' W 082°32'311.2
2017-Sep-21 03:24N 27°45' W 082°31'410.1
2017-Sep-21 03:00N 27°48' W 082°28'510.8
2017-Sep-21 02:30N 27°53' W 082°26'3 5.4
2017-Sep-21 02:00N 27°56' W 082°26'0 0.0
2017-Sep-21 01:30N 27°56' W 082°26'0 0.0
2017-Sep-21 01:00N 27°56' W 082°26'0 0.0
2017-Sep-21 00:30N 27°56' W 082°26'0 0.0
2017-Sep-21 00:00N 27°56' W 082°26'0 0.0
2017-Sep-20 23:30N 27°56' W 082°26'2 3.7
2017-Sep-20 23:00N 27°54' W 082°25'0 0.7
2017-Sep-20 22:30N 27°54' W 082°25'1 2.6
2017-Sep-20 22:00N 27°54' W 082°26'611.8
2017-Sep-20 21:30N 27°48' W 082°28'510.5
2017-Sep-20 21:00N 27°49' W 082°34'3 6.4
2017-Sep-20 20:30N 27°52' W 082°33'2 4.4
2017-Sep-20 20:00N 27°50' W 082°34'510.0
2017-Sep-20 19:30N 27°45' W 082°31'4 1.1
2017-Sep-20 15:28N 27°47' W 082°36'4 8.6
2017-Sep-20 15:00N 27°50' W 082°34'2 1.6
2017-Sep-20 14:00N 27°52' W 082°33'0 0.0
2017-Sep-20 13:30N 27°52' W 082°33'0 0.0
2017-Sep-20 13:00N 27°52' W 082°33'0 0.0
2017-Sep-20 12:30N 27°52' W 082°33'0 0.0
2017-Sep-20 12:00N 27°52' W 082°33'0 0.0
2017-Sep-20 11:30N 27°52' W 082°33'0 0.0
2017-Sep-20 11:00N 27°52' W 082°33'0 0.0
2017-Sep-20 10:30N 27°52' W 082°33'0 0.0
2017-Sep-20 10:00N 27°52' W 082°33'0 0.0
2017-Sep-20 09:30N 27°52' W 082°33'0 0.0
2017-Sep-20 09:00N 27°52' W 082°33'0 0.0
2017-Sep-20 08:30N 27°52' W 082°33'0 0.0
2017-Sep-20 08:00N 27°52' W 082°33'0 0.0
2017-Sep-20 07:30N 27°52' W 082°33'0 0.0
2017-Sep-20 07:00N 27°52' W 082°33'0 0.0
2017-Sep-20 06:30N 27°52' W 082°33'0 0.0
2017-Sep-20 06:00N 27°52' W 082°33'0 0.0
2017-Sep-20 05:30N 27°52' W 082°33'0 0.0
2017-Sep-20 05:00N 27°52' W 082°33'0 0.0
2017-Sep-20 04:30N 27°52' W 082°33'0 0.0
2017-Sep-20 04:00N 27°52' W 082°33'0 0.1
2017-Sep-20 03:30N 27°52' W 082°33'0 0.2
2017-Sep-20 03:00N 27°52' W 082°33'2 2.8
2017-Sep-20 02:27N 27°50' W 082°34'3 5.5
2017-Sep-20 01:52N 27°47' W 082°33'2 6.2
2017-Sep-20 01:30N 27°47' W 082°31'510.4
2017-Sep-20 01:00N 27°51' W 082°27'4 7.8
2017-Sep-20 00:30N 27°55' W 082°27'0 0.3
2017-Sep-20 00:00N 27°55' W 082°27'0 0.0
2017-Sep-19 23:30N 27°55' W 082°27'1 2.3
2017-Sep-19 23:00N 27°56' W 082°26'0 0.0
2017-Sep-19 22:30N 27°56' W 082°26'0 0.0
2017-Sep-19 22:00N 27°56' W 082°26'0 0.0
2017-Sep-19 21:30N 27°56' W 082°26'0 0.0
2017-Sep-19 21:00N 27°56' W 082°26'0 0.0
2017-Sep-19 20:30N 27°56' W 082°26'0 0.0
2017-Sep-19 20:00N 27°56' W 082°26'0 0.0
2017-Sep-19 19:30N 27°56' W 082°26'0 0.0
2017-Sep-19 19:00N 27°56' W 082°26'0 0.0
2017-Sep-19 18:30N 27°56' W 082°26'0 0.0
2017-Sep-19 18:00N 27°56' W 082°26'0 0.0
2017-Sep-19 17:30N 27°56' W 082°26'0 0.0
2017-Sep-19 17:00N 27°56' W 082°26'0 0.0
2017-Sep-19 16:30N 27°56' W 082°26'0 0.0
2017-Sep-19 16:00N 27°56' W 082°26'0 0.0
2017-Sep-19 15:30N 27°56' W 082°26'0 0.0
2017-Sep-19 15:00N 27°56' W 082°26'0 0.0
2017-Sep-19 14:30N 27°56' W 082°26'0 0.0
2017-Sep-19 14:00N 27°56' W 082°26'0 0.0
2017-Sep-19 13:30N 27°56' W 082°26'0 0.0
2017-Sep-19 13:00N 27°56' W 082°26'0 0.0
2017-Sep-19 12:30N 27°56' W 082°26'0 0.0
2017-Sep-19 12:00N 27°56' W 082°26'0 0.0
2017-Sep-19 11:30N 27°56' W 082°26'0 0.0
2017-Sep-19 11:00N 27°56' W 082°26'1 2.9
2017-Sep-19 10:30N 27°55' W 082°26'0 0.7
2017-Sep-19 10:00N 27°54' W 082°26'1 2.9
2017-Sep-19 09:30N 27°53' W 082°26'0 0.9
2017-Sep-19 09:00N 27°53' W 082°26'2 3.1
2017-Sep-19 08:30N 27°55' W 082°26'0 0.0
2017-Sep-19 08:00N 27°55' W 082°26'0 0.0
2017-Sep-19 07:30N 27°55' W 082°26'0 0.0
2017-Sep-19 07:00N 27°55' W 082°26'2 4.6
2017-Sep-19 06:30N 27°53' W 082°26'3 5.8
2017-Sep-19 06:00N 27°51' W 082°24'0 0.2
2017-Sep-19 05:29N 27°51' W 082°24'0 0.0
2017-Sep-19 03:11N 27°52' W 082°24'1 6.2
2017-Sep-19 03:00N 27°51' W 082°25'5 9.9
2017-Sep-19 02:30N 27°48' W 082°29'7 0.3
2017-Sep-18 05:14N 27°42' W 082°33'310.9
2017-Sep-18 04:58N 27°45' W 082°32'5 9.9
2017-Sep-18 04:30N 27°48' W 082°28'510.7
2017-Sep-18 04:00N 27°53' W 082°26'2 3.7
2017-Sep-18 03:30N 27°55' W 082°27'0 0.0
2017-Sep-18 03:00N 27°55' W 082°27'1 2.0
2017-Sep-18 02:30N 27°56' W 082°26'0 0.3
2017-Sep-18 02:00N 27°56' W 082°26'0 0.0
2017-Sep-18 01:30N 27°56' W 082°26'0 0.0
2017-Sep-18 01:00N 27°56' W 082°26'0 0.0
2017-Sep-18 00:30N 27°56' W 082°26'0 0.0
2017-Sep-18 00:00N 27°56' W 082°26'0 0.0
2017-Sep-17 23:30N 27°56' W 082°26'0 0.0
2017-Sep-17 23:00N 27°56' W 082°26'0 0.0
2017-Sep-17 22:30N 27°56' W 082°26'0 0.0
2017-Sep-17 22:00N 27°56' W 082°26'0 0.0
2017-Sep-17 21:30N 27°56' W 082°26'0 0.0
2017-Sep-17 21:00N 27°56' W 082°26'0 0.0
2017-Sep-17 20:30N 27°56' W 082°26'1 2.1
2017-Sep-17 20:00N 27°55' W 082°26'0 0.1
2017-Sep-17 19:31N 27°55' W 082°26'1 2.0
2017-Sep-17 19:00N 27°56' W 082°26'0 0.0
2017-Sep-17 18:30N 27°56' W 082°26'0 0.0
2017-Sep-17 18:00N 27°56' W 082°26'0 0.0
2017-Sep-17 17:30N 27°56' W 082°26'0 0.0
2017-Sep-17 17:00N 27°56' W 082°26'0 0.0
2017-Sep-17 16:30N 27°56' W 082°26'0 0.0
2017-Sep-17 16:00N 27°56' W 082°26'0 0.0
2017-Sep-17 15:30N 27°56' W 082°26'0 0.0
2017-Sep-17 15:00N 27°56' W 082°26'0 0.0
2017-Sep-17 14:30N 27°56' W 082°26'0 0.0
2017-Sep-17 14:00N 27°56' W 082°26'0 0.0
2017-Sep-17 13:30N 27°56' W 082°26'0 0.0
2017-Sep-17 13:00N 27°56' W 082°26'0 0.9
2017-Sep-17 12:30N 27°56' W 082°26'5 9.9
2017-Sep-17 12:00N 27°51' W 082°27'5 9.9
2017-Sep-17 11:30N 27°47' W 082°31'2 0.5
2017-Sep-17 07:59N 27°46' W 082°31'510.4
2017-Sep-17 07:29N 27°49' W 082°27'511.2
2017-Sep-17 07:00N 27°54' W 082°26'1 1.4
2017-Sep-17 06:30N 27°55' W 082°26'0 0.0
2017-Sep-17 06:00N 27°55' W 082°26'0 0.0
2017-Sep-17 05:30N 27°55' W 082°26'0 0.0
2017-Sep-17 05:00N 27°55' W 082°26'1 1.4
2017-Sep-17 04:30N 27°54' W 082°26'2 5.0
2017-Sep-17 04:00N 27°57' W 082°27'0 0.0
2017-Sep-17 03:30N 27°57' W 082°27'0 0.8
2017-Sep-17 03:00N 27°56' W 082°27'1 1.5
2017-Sep-17 02:30N 27°57' W 082°27'1 1.3
2017-Sep-17 02:00N 27°56' W 082°27'0 0.6
2017-Sep-17 01:30N 27°57' W 082°27'0 0.1
2017-Sep-17 01:00N 27°57' W 082°27'0 0.0
2017-Sep-17 00:30N 27°57' W 082°27'2 4.7
2017-Sep-17 00:00N 27°54' W 082°26'1 2.7
2017-Sep-16 23:30N 27°54' W 082°25'0 0.8
2017-Sep-16 23:00N 27°54' W 082°25'1 1.8
2017-Sep-16 22:30N 27°54' W 082°26'1 2.1
2017-Sep-16 22:00N 27°53' W 082°26'3 6.1
2017-Sep-16 21:30N 27°56' W 082°26'0 0.3
2017-Sep-16 21:00N 27°56' W 082°26'0 0.0
2017-Sep-16 20:30N 27°56' W 082°26'0 0.0
2017-Sep-16 20:00N 27°56' W 082°26'0 0.0
2017-Sep-16 19:30N 27°56' W 082°26'0 0.0
2017-Sep-16 19:00N 27°56' W 082°26'0 0.0
2017-Sep-16 18:30N 27°56' W 082°26'0 0.0
2017-Sep-16 18:00N 27°56' W 082°26'0 0.0
2017-Sep-16 17:30N 27°56' W 082°26'0 0.0
2017-Sep-16 17:00N 27°56' W 082°26'0 0.0
2017-Sep-16 16:30N 27°56' W 082°26'1 2.2
2017-Sep-16 16:00N 27°55' W 082°26'1 1.8
2017-Sep-16 15:30N 27°55' W 082°27'0 0.2
2017-Sep-16 15:00N 27°55' W 082°27'2 4.3
2017-Sep-16 14:31N 27°53' W 082°26'3 5.6
2017-Sep-16 14:00N 27°51' W 082°24'0 0.5
2017-Sep-16 13:26N 27°51' W 082°24'2 4.0
2017-Sep-16 13:00N 27°51' W 082°25'3 6.3
2017-Sep-16 12:30N 27°48' W 082°28'3 6.0
2017-Sep-16 12:00N 27°47' W 082°30'510.3
2017-Sep-16 11:30N 27°51' W 082°27'510.2
2017-Sep-16 11:01N 27°56' W 082°26'2 3.5
2017-Sep-16 10:30N 27°54' W 082°26'1 1.5
2017-Sep-16 10:00N 27°54' W 082°25'0 0.3
2017-Sep-16 09:30N 27°54' W 082°25'0 0.7
2017-Sep-16 09:00N 27°54' W 082°25'2 4.0
2017-Sep-16 08:30N 27°56' W 082°26'0 0.0
2017-Sep-16 08:00N 27°56' W 082°26'0 0.0
2017-Sep-16 07:30N 27°56' W 082°26'0 0.0
2017-Sep-16 07:00N 27°56' W 082°26'0 0.0
2017-Sep-16 06:30N 27°56' W 082°26'0 0.0
2017-Sep-16 06:00N 27°56' W 082°26'1 1.1
2017-Sep-16 05:30N 27°56' W 082°26'1 1.1
2017-Sep-16 05:00N 27°55' W 082°26'1 2.4
2017-Sep-16 04:30N 27°54' W 082°26'1 1.9
2017-Sep-16 04:00N 27°53' W 082°26'2 3.6
2017-Sep-16 03:30N 27°55' W 082°26'1 2.8
2017-Sep-16 03:00N 27°56' W 082°27'1 2.8
2017-Sep-16 02:30N 27°57' W 082°27'0 0.0
2017-Sep-16 02:00N 27°57' W 082°27'1 1.9
2017-Sep-16 01:30N 27°56' W 082°27'1 2.6
2017-Sep-16 01:00N 27°55' W 082°27'0 0.3
2017-Sep-16 00:30N 27°55' W 082°27'0 0.0
2017-Sep-16 00:00N 27°55' W 082°27'0 0.0
2017-Sep-15 23:30N 27°55' W 082°27'0 0.2
2017-Sep-15 23:00N 27°55' W 082°27'0 0.2
2017-Sep-15 22:31N 27°55' W 082°27'1 1.4
2017-Sep-15 22:00N 27°54' W 082°26'0 0.1
2017-Sep-15 21:30N 27°54' W 082°26'2 3.3
2017-Sep-15 21:00N 27°56' W 082°26'0 0.0
2017-Sep-15 20:30N 27°56' W 082°26'0 0.0
2017-Sep-15 20:00N 27°56' W 082°26'0 0.0
2017-Sep-15 19:30N 27°56' W 082°26'0 0.0
2017-Sep-15 19:00N 27°56' W 082°26'0 0.0
2017-Sep-15 18:30N 27°56' W 082°26'0 0.0
2017-Sep-15 18:00N 27°56' W 082°26'0 0.0
2017-Sep-15 17:30N 27°56' W 082°26'0 0.0
2017-Sep-15 17:00N 27°56' W 082°26'0 0.0
2017-Sep-15 16:30N 27°56' W 082°26'2 3.1
2017-Sep-15 16:00N 27°54' W 082°26'0 0.2
2017-Sep-15 15:30N 27°54' W 082°26'2 3.1
2017-Sep-15 15:01N 27°53' W 082°26'0 0.7
2017-Sep-15 14:30N 27°53' W 082°26'3 5.6
2017-Sep-15 14:00N 27°56' W 082°26'0 0.0
2017-Sep-15 13:30N 27°56' W 082°26'0 0.0
2017-Sep-15 13:00N 27°56' W 082°26'0 0.0
2017-Sep-15 12:30N 27°56' W 082°26'0 0.0
2017-Sep-15 12:00N 27°56' W 082°26'0 0.0
2017-Sep-15 11:30N 27°56' W 082°26'0 0.0
2017-Sep-15 11:00N 27°56' W 082°26'0 0.0
2017-Sep-15 10:30N 27°56' W 082°26'0 0.0
2017-Sep-15 10:00N 27°56' W 082°26'0 0.0
2017-Sep-15 09:30N 27°56' W 082°26'0 0.0
2017-Sep-15 09:00N 27°56' W 082°26'0 0.0
2017-Sep-15 08:30N 27°56' W 082°26'0 0.0
2017-Sep-15 08:00N 27°56' W 082°26'0 0.0
2017-Sep-15 07:30N 27°56' W 082°26'0 0.0
2017-Sep-15 07:00N 27°56' W 082°26'0 0.0
2017-Sep-15 06:30N 27°56' W 082°26'0 0.0
2017-Sep-15 06:00N 27°56' W 082°26'0 0.0
2017-Sep-15 05:30N 27°56' W 082°26'0 0.0
2017-Sep-15 05:00N 27°56' W 082°26'0 0.0
2017-Sep-15 04:30N 27°56' W 082°26'0 0.0
2017-Sep-15 04:00N 27°56' W 082°26'2 3.0
2017-Sep-15 03:30N 27°54' W 082°26'2 4.7
2017-Sep-15 03:00N 27°57' W 082°27'0 0.0
2017-Sep-15 02:30N 27°57' W 082°27'0 0.6
2017-Sep-15 02:00N 27°56' W 082°27'1 1.8
2017-Sep-15 01:30N 27°56' W 082°27'0 0.7
2017-Sep-15 01:00N 27°55' W 082°27'1 2.7
2017-Sep-15 00:30N 27°54' W 082°26'1 1.9
2017-Sep-15 00:00N 27°55' W 082°26'0 0.0
2017-Sep-14 23:30N 27°55' W 082°26'0 0.0
2017-Sep-14 23:00N 27°55' W 082°26'1 1.3
2017-Sep-14 22:30N 27°55' W 082°26'2 3.9
2017-Sep-14 22:00N 27°56' W 082°27'0 0.8
2017-Sep-14 21:30N 27°57' W 082°27'0 0.0
2017-Sep-14 21:00N 27°57' W 082°27'2 3.5
2017-Sep-14 20:30N 27°55' W 082°27'0 0.0
2017-Sep-14 20:00N 27°55' W 082°27'2 3.1
2017-Sep-14 19:30N 27°54' W 082°26'1 1.8
2017-Sep-14 19:00N 27°54' W 082°26'0 0.0
2017-Sep-14 18:30N 27°54' W 082°26'0 0.0
2017-Sep-14 18:00N 27°54' W 082°26'0 0.0
2017-Sep-14 17:30N 27°54' W 082°26'1 1.3
2017-Sep-14 17:00N 27°55' W 082°27'0 0.0
2017-Sep-14 16:30N 27°55' W 082°27'1 1.3
2017-Sep-14 16:00N 27°54' W 082°26'0 0.0
2017-Sep-14 15:30N 27°54' W 082°26'0 0.0
2017-Sep-14 15:00N 27°54' W 082°26'0 0.0
2017-Sep-14 14:30N 27°54' W 082°26'0 0.0
2017-Sep-14 14:00N 27°54' W 082°26'0 0.0
2017-Sep-14 13:30N 27°54' W 082°26'2 4.0
2017-Sep-14 13:00N 27°53' W 082°26'4 8.4
2017-Sep-14 12:30N 27°48' W 082°25'1 1.6
2017-Sep-14 12:00N 27°48' W 082°25'1 1.2
2017-Sep-14 11:25N 27°48' W 082°25'0 0.1
2017-Sep-14 10:50N 27°48' W 082°25'2 5.8
2017-Sep-14 10:30N 27°49' W 082°27'510.0
2017-Sep-14 10:00N 27°54' W 082°26'3 5.0
2017-Sep-14 09:30N 27°56' W 082°26'0 0.0
2017-Sep-14 09:00N 27°56' W 082°26'0 0.0
2017-Sep-14 08:30N 27°56' W 082°26'0 0.0
2017-Sep-14 08:00N 27°56' W 082°26'0 0.0
2017-Sep-14 07:30N 27°56' W 082°26'0 0.0
2017-Sep-14 07:00N 27°56' W 082°26'0 0.0
2017-Sep-14 06:30N 27°56' W 082°26'0 0.0
2017-Sep-14 06:00N 27°56' W 082°26'0 0.0
2017-Sep-14 05:30N 27°56' W 082°26'0 0.0
2017-Sep-14 05:00N 27°56' W 082°26'0 0.0
2017-Sep-14 04:30N 27°56' W 082°26'0 0.0
2017-Sep-14 04:00N 27°56' W 082°26'0 0.0
2017-Sep-14 03:30N 27°56' W 082°26'0 0.0
2017-Sep-14 03:00N 27°56' W 082°26'0 0.0
2017-Sep-14 02:30N 27°56' W 082°26'0 0.0
2017-Sep-14 02:00N 27°56' W 082°26'0 0.0
2017-Sep-14 01:30N 27°56' W 082°26'0 0.0
2017-Sep-14 01:00N 27°56' W 082°26'0 0.0
2017-Sep-14 00:30N 27°56' W 082°26'0 0.0
2017-Sep-14 00:00N 27°56' W 082°26'1 2.4
2017-Sep-13 23:30N 27°55' W 082°27'  
Track history (hours):
 
Tides and Currents Weather Stations Pressure Air Temp Water Temp Dewpoint Dewpoint Depression Visibility Wind Speed Wind Dir Waves Ship Positions

Liberty

Owner: Tampa Tugs Three, LLC, Tampa, FL. More information available from US FCC via Universal Licensing System and Coast Guard Vessel Documentation Center.

Last reported at 2017-Sep-23 23:30 UTC. Time now 2017-Sep-23 23:38 UTC.
Position N 27°56' W 082°26'.

Length 29 m.

Type: Tug. MMSI: 367174670.

Date/timePositionNaut miles runAvg speedWind from/ knotsBaromVisibWave heightAir tempDewpointWater temp
2017-Sep-23 23:30N 27°56' W 082°26'0 0.0
2017-Sep-23 23:00N 27°56' W 082°26'0 0.0
2017-Sep-23 22:30N 27°56' W 082°26'0 0.0
2017-Sep-23 22:00N 27°56' W 082°26'0 0.0
2017-Sep-23 21:30N 27°56' W 082°26'0 0.0
2017-Sep-23 21:00N 27°56' W 082°26'0 0.0
2017-Sep-23 20:30N 27°56' W 082°26'0 0.0
2017-Sep-23 20:00N 27°56' W 082°26'  
2017-Sep-21 11:28N 27°38' W 082°34'5 0.6
2017-Sep-21 03:38N 27°43' W 082°32'311.2
2017-Sep-21 03:24N 27°45' W 082°31'410.1
2017-Sep-21 03:00N 27°48' W 082°28'510.8
2017-Sep-21 02:30N 27°53' W 082°26'3 5.4
2017-Sep-21 02:00N 27°56' W 082°26'0 0.0
2017-Sep-21 01:30N 27°56' W 082°26'0 0.0
2017-Sep-21 01:00N 27°56' W 082°26'0 0.0
2017-Sep-21 00:30N 27°56' W 082°26'0 0.0
2017-Sep-21 00:00N 27°56' W 082°26'0 0.0
2017-Sep-20 23:30N 27°56' W 082°26'2 3.7
2017-Sep-20 23:00N 27°54' W 082°25'0 0.7
2017-Sep-20 22:30N 27°54' W 082°25'1 2.6
2017-Sep-20 22:00N 27°54' W 082°26'611.8
2017-Sep-20 21:30N 27°48' W 082°28'510.5
2017-Sep-20 21:00N 27°49' W 082°34'3 6.4
2017-Sep-20 20:30N 27°52' W 082°33'2 4.4
2017-Sep-20 20:00N 27°50' W 082°34'510.0
2017-Sep-20 19:30N 27°45' W 082°31'4 1.1
2017-Sep-20 15:28N 27°47' W 082°36'4 8.6
2017-Sep-20 15:00N 27°50' W 082°34'2 1.6
2017-Sep-20 14:00N 27°52' W 082°33'0 0.0
2017-Sep-20 13:30N 27°52' W 082°33'0 0.0
2017-Sep-20 13:00N 27°52' W 082°33'0 0.0
2017-Sep-20 12:30N 27°52' W 082°33'0 0.0
2017-Sep-20 12:00N 27°52' W 082°33'0 0.0
2017-Sep-20 11:30N 27°52' W 082°33'0 0.0
2017-Sep-20 11:00N 27°52' W 082°33'0 0.0
2017-Sep-20 10:30N 27°52' W 082°33'0 0.0
2017-Sep-20 10:00N 27°52' W 082°33'0 0.0
2017-Sep-20 09:30N 27°52' W 082°33'0 0.0
2017-Sep-20 09:00N 27°52' W 082°33'0 0.0
2017-Sep-20 08:30N 27°52' W 082°33'0 0.0
2017-Sep-20 08:00N 27°52' W 082°33'0 0.0
2017-Sep-20 07:30N 27°52' W 082°33'0 0.0
2017-Sep-20 07:00N 27°52' W 082°33'0 0.0
2017-Sep-20 06:30N 27°52' W 082°33'0 0.0
2017-Sep-20 06:00N 27°52' W 082°33'0 0.0
2017-Sep-20 05:30N 27°52' W 082°33'0 0.0
2017-Sep-20 05:00N 27°52' W 082°33'0 0.0
2017-Sep-20 04:30N 27°52' W 082°33'0 0.0
2017-Sep-20 04:00N 27°52' W 082°33'0 0.1
2017-Sep-20 03:30N 27°52' W 082°33'0 0.2
2017-Sep-20 03:00N 27°52' W 082°33'2 2.8
2017-Sep-20 02:27N 27°50' W 082°34'3 5.5
2017-Sep-20 01:52N 27°47' W 082°33'2 6.2
2017-Sep-20 01:30N 27°47' W 082°31'510.4
2017-Sep-20 01:00N 27°51' W 082°27'4 7.8
2017-Sep-20 00:30N 27°55' W 082°27'0 0.3
2017-Sep-20 00:00N 27°55' W 082°27'0 0.0
2017-Sep-19 23:30N 27°55' W 082°27'1 2.3
2017-Sep-19 23:00N 27°56' W 082°26'0 0.0
2017-Sep-19 22:30N 27°56' W 082°26'0 0.0
2017-Sep-19 22:00N 27°56' W 082°26'0 0.0
2017-Sep-19 21:30N 27°56' W 082°26'0 0.0
2017-Sep-19 21:00N 27°56' W 082°26'0 0.0
2017-Sep-19 20:30N 27°56' W 082°26'0 0.0
2017-Sep-19 20:00N 27°56' W 082°26'0 0.0
2017-Sep-19 19:30N 27°56' W 082°26'0 0.0
2017-Sep-19 19:00N 27°56' W 082°26'0 0.0
2017-Sep-19 18:30N 27°56' W 082°26'0 0.0
2017-Sep-19 18:00N 27°56' W 082°26'0 0.0
2017-Sep-19 17:30N 27°56' W 082°26'0 0.0
2017-Sep-19 17:00N 27°56' W 082°26'0 0.0
2017-Sep-19 16:30N 27°56' W 082°26'0 0.0
2017-Sep-19 16:00N 27°56' W 082°26'0 0.0
2017-Sep-19 15:30N 27°56' W 082°26'0 0.0
2017-Sep-19 15:00N 27°56' W 082°26'0 0.0
2017-Sep-19 14:30N 27°56' W 082°26'0 0.0
2017-Sep-19 14:00N 27°56' W 082°26'0 0.0
2017-Sep-19 13:30N 27°56' W 082°26'0 0.0
2017-Sep-19 13:00N 27°56' W 082°26'0 0.0
2017-Sep-19 12:30N 27°56' W 082°26'0 0.0
2017-Sep-19 12:00N 27°56' W 082°26'0 0.0
2017-Sep-19 11:30N 27°56' W 082°26'0 0.0
2017-Sep-19 11:00N 27°56' W 082°26'1 2.9
2017-Sep-19 10:30N 27°55' W 082°26'0 0.7
2017-Sep-19 10:00N 27°54' W 082°26'1 2.9
2017-Sep-19 09:30N 27°53' W 082°26'0 0.9
2017-Sep-19 09:00N 27°53' W 082°26'2 3.1
2017-Sep-19 08:30N 27°55' W 082°26'0 0.0
2017-Sep-19 08:00N 27°55' W 082°26'0 0.0
2017-Sep-19 07:30N 27°55' W 082°26'0 0.0
2017-Sep-19 07:00N 27°55' W 082°26'2 4.6
2017-Sep-19 06:30N 27°53' W 082°26'3 5.8
2017-Sep-19 06:00N 27°51' W 082°24'0 0.2
2017-Sep-19 05:29N 27°51' W 082°24'0 0.0
2017-Sep-19 03:11N 27°52' W 082°24'1 6.2
2017-Sep-19 03:00N 27°51' W 082°25'5 9.9
2017-Sep-19 02:30N 27°48' W 082°29'7 0.3
2017-Sep-18 05:14N 27°42' W 082°33'310.9
2017-Sep-18 04:58N 27°45' W 082°32'5 9.9
2017-Sep-18 04:30N 27°48' W 082°28'510.7
2017-Sep-18 04:00N 27°53' W 082°26'2 3.7
2017-Sep-18 03:30N 27°55' W 082°27'0 0.0
2017-Sep-18 03:00N 27°55' W 082°27'1 2.0
2017-Sep-18 02:30N 27°56' W 082°26'0 0.3
2017-Sep-18 02:00N 27°56' W 082°26'0 0.0
2017-Sep-18 01:30N 27°56' W 082°26'0 0.0
2017-Sep-18 01:00N 27°56' W 082°26'0 0.0
2017-Sep-18 00:30N 27°56' W 082°26'0 0.0
2017-Sep-18 00:00N 27°56' W 082°26'0 0.0
2017-Sep-17 23:30N 27°56' W 082°26'0 0.0
2017-Sep-17 23:00N 27°56' W 082°26'0 0.0
2017-Sep-17 22:30N 27°56' W 082°26'0 0.0
2017-Sep-17 22:00N 27°56' W 082°26'0 0.0
2017-Sep-17 21:30N 27°56' W 082°26'0 0.0
2017-Sep-17 21:00N 27°56' W 082°26'0 0.0
2017-Sep-17 20:30N 27°56' W 082°26'1 2.1
2017-Sep-17 20:00N 27°55' W 082°26'0 0.1
2017-Sep-17 19:31N 27°55' W 082°26'1 2.0
2017-Sep-17 19:00N 27°56' W 082°26'0 0.0
2017-Sep-17 18:30N 27°56' W 082°26'0 0.0
2017-Sep-17 18:00N 27°56' W 082°26'0 0.0
2017-Sep-17 17:30N 27°56' W 082°26'0 0.0
2017-Sep-17 17:00N 27°56' W 082°26'0 0.0
2017-Sep-17 16:30N 27°56' W 082°26'0 0.0
2017-Sep-17 16:00N 27°56' W 082°26'0 0.0
2017-Sep-17 15:30N 27°56' W 082°26'0 0.0
2017-Sep-17 15:00N 27°56' W 082°26'0 0.0
2017-Sep-17 14:30N 27°56' W 082°26'0 0.0
2017-Sep-17 14:00N 27°56' W 082°26'0 0.0
2017-Sep-17 13:30N 27°56' W 082°26'0 0.0
2017-Sep-17 13:00N 27°56' W 082°26'0 0.9
2017-Sep-17 12:30N 27°56' W 082°26'5 9.9
2017-Sep-17 12:00N 27°51' W 082°27'5 9.9
2017-Sep-17 11:30N 27°47' W 082°31'2 0.5
2017-Sep-17 07:59N 27°46' W 082°31'510.4
2017-Sep-17 07:29N 27°49' W 082°27'511.2
2017-Sep-17 07:00N 27°54' W 082°26'1 1.4
2017-Sep-17 06:30N 27°55' W 082°26'0 0.0
2017-Sep-17 06:00N 27°55' W 082°26'0 0.0
2017-Sep-17 05:30N 27°55' W 082°26'0 0.0
2017-Sep-17 05:00N 27°55' W 082°26'1 1.4
2017-Sep-17 04:30N 27°54' W 082°26'2 5.0
2017-Sep-17 04:00N 27°57' W 082°27'0 0.0
2017-Sep-17 03:30N 27°57' W 082°27'0 0.8
2017-Sep-17 03:00N 27°56' W 082°27'1 1.5
2017-Sep-17 02:30N 27°57' W 082°27'1 1.3
2017-Sep-17 02:00N 27°56' W 082°27'0 0.6
2017-Sep-17 01:30N 27°57' W 082°27'0 0.1
2017-Sep-17 01:00N 27°57' W 082°27'0 0.0
2017-Sep-17 00:30N 27°57' W 082°27'2 4.7
2017-Sep-17 00:00N 27°54' W 082°26'1 2.7
2017-Sep-16 23:30N 27°54' W 082°25'0 0.8
2017-Sep-16 23:00N 27°54' W 082°25'1 1.8
2017-Sep-16 22:30N 27°54' W 082°26'1 2.1
2017-Sep-16 22:00N 27°53' W 082°26'3 6.1
2017-Sep-16 21:30N 27°56' W 082°26'0 0.3
2017-Sep-16 21:00N 27°56' W 082°26'0 0.0
2017-Sep-16 20:30N 27°56' W 082°26'0 0.0
2017-Sep-16 20:00N 27°56' W 082°26'0 0.0
2017-Sep-16 19:30N 27°56' W 082°26'0 0.0
2017-Sep-16 19:00N 27°56' W 082°26'0 0.0
2017-Sep-16 18:30N 27°56' W 082°26'0 0.0
2017-Sep-16 18:00N 27°56' W 082°26'0 0.0
2017-Sep-16 17:30N 27°56' W 082°26'0 0.0
2017-Sep-16 17:00N 27°56' W 082°26'0 0.0
2017-Sep-16 16:30N 27°56' W 082°26'1 2.2
2017-Sep-16 16:00N 27°55' W 082°26'1 1.8
2017-Sep-16 15:30N 27°55' W 082°27'0 0.2
2017-Sep-16 15:00N 27°55' W 082°27'2 4.3
2017-Sep-16 14:31N 27°53' W 082°26'3 5.6
2017-Sep-16 14:00N 27°51' W 082°24'0 0.5
2017-Sep-16 13:26N 27°51' W 082°24'2 4.0
2017-Sep-16 13:00N 27°51' W 082°25'3 6.3
2017-Sep-16 12:30N 27°48' W 082°28'3 6.0
2017-Sep-16 12:00N 27°47' W 082°30'510.3
2017-Sep-16 11:30N 27°51' W 082°27'510.2
2017-Sep-16 11:01N 27°56' W 082°26'2 3.5
2017-Sep-16 10:30N 27°54' W 082°26'1 1.5
2017-Sep-16 10:00N 27°54' W 082°25'0 0.3
2017-Sep-16 09:30N 27°54' W 082°25'0 0.7
2017-Sep-16 09:00N 27°54' W 082°25'2 4.0
2017-Sep-16 08:30N 27°56' W 082°26'0 0.0
2017-Sep-16 08:00N 27°56' W 082°26'0 0.0
2017-Sep-16 07:30N 27°56' W 082°26'0 0.0
2017-Sep-16 07:00N 27°56' W 082°26'0 0.0
2017-Sep-16 06:30N 27°56' W 082°26'0 0.0
2017-Sep-16 06:00N 27°56' W 082°26'1 1.1
2017-Sep-16 05:30N 27°56' W 082°26'1 1.1
2017-Sep-16 05:00N 27°55' W 082°26'1 2.4
2017-Sep-16 04:30N 27°54' W 082°26'1 1.9
2017-Sep-16 04:00N 27°53' W 082°26'2 3.6
2017-Sep-16 03:30N 27°55' W 082°26'1 2.8
2017-Sep-16 03:00N 27°56' W 082°27'1 2.8
2017-Sep-16 02:30N 27°57' W 082°27'0 0.0
2017-Sep-16 02:00N 27°57' W 082°27'1 1.9
2017-Sep-16 01:30N 27°56' W 082°27'1 2.6
2017-Sep-16 01:00N 27°55' W 082°27'0 0.3
2017-Sep-16 00:30N 27°55' W 082°27'0 0.0
2017-Sep-16 00:00N 27°55' W 082°27'0 0.0
2017-Sep-15 23:30N 27°55' W 082°27'0 0.2
2017-Sep-15 23:00N 27°55' W 082°27'0 0.2
2017-Sep-15 22:31N 27°55' W 082°27'1 1.4
2017-Sep-15 22:00N 27°54' W 082°26'0 0.1
2017-Sep-15 21:30N 27°54' W 082°26'2 3.3
2017-Sep-15 21:00N 27°56' W 082°26'0 0.0
2017-Sep-15 20:30N 27°56' W 082°26'0 0.0
2017-Sep-15 20:00N 27°56' W 082°26'0 0.0
2017-Sep-15 19:30N 27°56' W 082°26'0 0.0
2017-Sep-15 19:00N 27°56' W 082°26'0 0.0
2017-Sep-15 18:30N 27°56' W 082°26'0 0.0
2017-Sep-15 18:00N 27°56' W 082°26'0 0.0
2017-Sep-15 17:30N 27°56' W 082°26'0 0.0
2017-Sep-15 17:00N 27°56' W 082°26'0 0.0
2017-Sep-15 16:30N 27°56' W 082°26'2 3.1
2017-Sep-15 16:00N 27°54' W 082°26'0 0.2
2017-Sep-15 15:30N 27°54' W 082°26'2 3.1
2017-Sep-15 15:01N 27°53' W 082°26'0 0.7
2017-Sep-15 14:30N 27°53' W 082°26'3 5.6
2017-Sep-15 14:00N 27°56' W 082°26'0 0.0
2017-Sep-15 13:30N 27°56' W 082°26'0 0.0
2017-Sep-15 13:00N 27°56' W 082°26'0 0.0
2017-Sep-15 12:30N 27°56' W 082°26'0 0.0
2017-Sep-15 12:00N 27°56' W 082°26'0 0.0
2017-Sep-15 11:30N 27°56' W 082°26'0 0.0
2017-Sep-15 11:00N 27°56' W 082°26'0 0.0
2017-Sep-15 10:30N 27°56' W 082°26'0 0.0
2017-Sep-15 10:00N 27°56' W 082°26'0 0.0
2017-Sep-15 09:30N 27°56' W 082°26'0 0.0
2017-Sep-15 09:00N 27°56' W 082°26'0 0.0
2017-Sep-15 08:30N 27°56' W 082°26'0 0.0
2017-Sep-15 08:00N 27°56' W 082°26'0 0.0
2017-Sep-15 07:30N 27°56' W 082°26'0 0.0
2017-Sep-15 07:00N 27°56' W 082°26'0 0.0
2017-Sep-15 06:30N 27°56' W 082°26'0 0.0
2017-Sep-15 06:00N 27°56' W 082°26'0 0.0
2017-Sep-15 05:30N 27°56' W 082°26'0 0.0
2017-Sep-15 05:00N 27°56' W 082°26'0 0.0
2017-Sep-15 04:30N 27°56' W 082°26'0 0.0
2017-Sep-15 04:00N 27°56' W 082°26'2 3.0
2017-Sep-15 03:30N 27°54' W 082°26'2 4.7
2017-Sep-15 03:00N 27°57' W 082°27'0 0.0
2017-Sep-15 02:30N 27°57' W 082°27'0 0.6
2017-Sep-15 02:00N 27°56' W 082°27'1 1.8
2017-Sep-15 01:30N 27°56' W 082°27'0 0.7
2017-Sep-15 01:00N 27°55' W 082°27'1 2.7
2017-Sep-15 00:30N 27°54' W 082°26'1 1.9
2017-Sep-15 00:00N 27°55' W 082°26'0 0.0
2017-Sep-14 23:30N 27°55' W 082°26'0 0.0
2017-Sep-14 23:00N 27°55' W 082°26'1 1.3
2017-Sep-14 22:30N 27°55' W 082°26'2 3.9
2017-Sep-14 22:00N 27°56' W 082°27'0 0.8
2017-Sep-14 21:30N 27°57' W 082°27'0 0.0
2017-Sep-14 21:00N 27°57' W 082°27'2 3.5
2017-Sep-14 20:30N 27°55' W 082°27'0 0.0
2017-Sep-14 20:00N 27°55' W 082°27'2 3.1
2017-Sep-14 19:30N 27°54' W 082°26'1 1.8
2017-Sep-14 19:00N 27°54' W 082°26'0 0.0
2017-Sep-14 18:30N 27°54' W 082°26'0 0.0
2017-Sep-14 18:00N 27°54' W 082°26'0 0.0
2017-Sep-14 17:30N 27°54' W 082°26'1 1.3
2017-Sep-14 17:00N 27°55' W 082°27'0 0.0
2017-Sep-14 16:30N 27°55' W 082°27'1 1.3
2017-Sep-14 16:00N 27°54' W 082°26'0 0.0
2017-Sep-14 15:30N 27°54' W 082°26'0 0.0
2017-Sep-14 15:00N 27°54' W 082°26'0 0.0
2017-Sep-14 14:30N 27°54' W 082°26'0 0.0
2017-Sep-14 14:00N 27°54' W 082°26'0 0.0
2017-Sep-14 13:30N 27°54' W 082°26'2 4.0
2017-Sep-14 13:00N 27°53' W 082°26'4 8.4
2017-Sep-14 12:30N 27°48' W 082°25'1 1.6
2017-Sep-14 12:00N 27°48' W 082°25'1 1.2
2017-Sep-14 11:25N 27°48' W 082°25'0 0.1
2017-Sep-14 10:50N 27°48' W 082°25'2 5.8
2017-Sep-14 10:30N 27°49' W 082°27'510.0
2017-Sep-14 10:00N 27°54' W 082°26'3 5.0
2017-Sep-14 09:30N 27°56' W 082°26'0 0.0
2017-Sep-14 09:00N 27°56' W 082°26'0 0.0
2017-Sep-14 08:30N 27°56' W 082°26'0 0.0
2017-Sep-14 08:00N 27°56' W 082°26'0 0.0
2017-Sep-14 07:30N 27°56' W 082°26'0 0.0
2017-Sep-14 07:00N 27°56' W 082°26'0 0.0
2017-Sep-14 06:30N 27°56' W 082°26'0 0.0
2017-Sep-14 06:00N 27°56' W 082°26'0 0.0
2017-Sep-14 05:30N 27°56' W 082°26'0 0.0
2017-Sep-14 05:00N 27°56' W 082°26'0 0.0
2017-Sep-14 04:30N 27°56' W 082°26'0 0.0
2017-Sep-14 04:00N 27°56' W 082°26'0 0.0
2017-Sep-14 03:30N 27°56' W 082°26'0 0.0
2017-Sep-14 03:00N 27°56' W 082°26'0 0.0
2017-Sep-14 02:30N 27°56' W 082°26'0 0.0
2017-Sep-14 02:00N 27°56' W 082°26'0 0.0
2017-Sep-14 01:30N 27°56' W 082°26'0 0.0
2017-Sep-14 01:00N 27°56' W 082°26'0 0.0
2017-Sep-14 00:30N 27°56' W 082°26'0 0.0
2017-Sep-14 00:00N 27°56' W 082°26'1 2.4
2017-Sep-13 23:30N 27°55' W 082°27'  

Dump ship's entire track history